createdAt,value
2023-04-15T00:01:37.559Z,5.47
2023-04-15T00:04:05.099Z,5.50
2023-04-15T00:06:32.085Z,5.65
2023-04-15T00:08:59.235Z,5.93
2023-04-15T00:11:26.337Z,5.30
2023-04-15T00:13:53.203Z,5.50
2023-04-15T00:16:20.082Z,5.60
2023-04-15T00:18:46.886Z,5.43
2023-04-15T00:21:13.742Z,4.97
2023-04-15T00:23:40.659Z,5.35
2023-04-15T00:26:07.584Z,5.50
2023-04-15T00:28:34.445Z,6.28
2023-04-15T00:31:01.456Z,4.90
2023-04-15T00:33:28.388Z,6.93
2023-04-15T00:35:55.266Z,5.95
2023-04-15T00:38:22.106Z,6.10
2023-04-15T00:40:49.119Z,6.50
2023-04-15T00:43:16.440Z,5.65
2023-04-15T00:45:43.507Z,5.22
2023-04-15T00:48:11.474Z,4.95
2023-04-15T00:50:38.492Z,6.47
2023-04-15T00:53:05.721Z,5.30
2023-04-15T00:55:32.625Z,4.90
2023-04-15T00:57:59.537Z,5.68
2023-04-15T01:00:26.881Z,5.65
2023-04-15T01:02:53.968Z,6.03
2023-04-15T01:05:20.939Z,6.95
2023-04-15T01:07:48.654Z,5.63
2023-04-15T01:10:15.601Z,5.93
2023-04-15T01:12:43.356Z,6.03
2023-04-15T01:15:11.180Z,6.22
2023-04-15T01:17:38.713Z,6.10
2023-04-15T01:20:06.498Z,7.55
2023-04-15T01:22:34.493Z,5.75
2023-04-15T01:25:20.227Z,7.05
2023-04-15T01:27:47.638Z,7.45
2023-04-15T01:30:14.473Z,6.65
2023-04-15T01:32:41.758Z,7.07
2023-04-15T01:35:09.067Z,5.43
2023-04-15T01:37:36.853Z,7.68
2023-04-15T01:40:03.836Z,6.63
2023-04-15T01:42:30.641Z,7.30
2023-04-15T01:44:57.448Z,6.28
2023-04-15T01:47:24.268Z,7.25
2023-04-15T01:49:51.640Z,6.93
2023-04-15T01:52:18.519Z,6.80
2023-04-15T01:54:45.746Z,7.55
2023-04-15T01:57:12.895Z,6.20
2023-04-15T01:59:39.740Z,6.35
2023-04-15T02:02:06.636Z,7.38
2023-04-15T02:04:34.203Z,6.20
2023-04-15T02:07:01.699Z,7.15
2023-04-15T02:09:28.647Z,6.95
2023-04-15T02:11:55.505Z,6.50
2023-04-15T02:14:22.439Z,6.63
2023-04-15T02:16:49.462Z,6.18
2023-04-15T02:19:16.355Z,6.70
2023-04-15T02:21:43.233Z,6.20
2023-04-15T02:24:10.407Z,7.22
2023-04-15T02:26:37.229Z,7.25
2023-04-15T02:29:04.359Z,6.75
2023-04-15T02:31:34.144Z,7.70
2023-04-15T02:34:03.030Z,6.75
2023-04-15T02:36:31.640Z,6.37
2023-04-15T02:38:58.759Z,7.00
2023-04-15T02:41:27.849Z,6.60
2023-04-15T02:43:55.144Z,6.85
2023-04-15T02:46:22.993Z,7.93
2023-04-15T02:48:50.644Z,7.03
2023-04-15T02:51:22.883Z,7.47
2023-04-15T02:53:50.606Z,6.97
2023-04-15T02:56:19.323Z,7.55
2023-04-15T02:58:46.228Z,6.90
2023-04-15T03:01:13.672Z,7.18
2023-04-15T03:03:40.729Z,7.50
2023-04-15T03:06:08.877Z,8.95
2023-04-15T03:08:36.413Z,7.78
2023-04-15T03:11:03.497Z,7.15
2023-04-15T03:13:30.500Z,8.15
2023-04-15T03:15:57.370Z,7.15
2023-04-15T03:18:24.310Z,7.28
2023-04-15T03:20:51.267Z,7.13
2023-04-15T03:23:18.302Z,6.90
2023-04-15T03:25:45.443Z,7.93
2023-04-15T03:28:12.655Z,7.50
2023-04-15T03:30:39.564Z,7.82
2023-04-15T03:33:06.993Z,7.47
2023-04-15T03:35:34.090Z,7.38
2023-04-15T03:38:01.033Z,8.60
2023-04-15T03:40:27.948Z,7.55
2023-04-15T03:42:54.806Z,8.43
2023-04-15T03:45:21.656Z,7.18
2023-04-15T03:47:49.794Z,7.50
2023-04-15T03:50:16.727Z,8.02
2023-04-15T03:52:44.691Z,8.07
2023-04-15T03:55:11.616Z,8.80
2023-04-15T03:57:39.363Z,8.35
2023-04-15T04:00:07.637Z,7.32
2023-04-15T04:02:34.791Z,7.03
2023-04-15T04:05:01.764Z,7.70
2023-04-15T04:07:28.742Z,8.48
2023-04-15T04:09:56.556Z,9.05
2023-04-15T04:12:23.378Z,8.48
2023-04-15T04:14:50.458Z,8.25
2023-04-15T04:17:17.439Z,7.55
2023-04-15T04:19:44.313Z,8.45
2023-04-15T04:22:11.367Z,7.50
2023-04-15T04:24:38.156Z,8.23
2023-04-15T04:27:05.177Z,8.85
2023-04-15T04:29:32.050Z,9.70
2023-04-15T04:31:58.928Z,8.00
2023-04-15T04:34:25.758Z,7.65
2023-04-15T04:36:52.604Z,10.25
2023-04-15T04:39:19.405Z,8.45
2023-04-15T04:41:46.222Z,8.63
2023-04-15T04:44:13.057Z,10.52
2023-04-15T04:46:39.898Z,8.50
2023-04-15T04:49:07.028Z,10.77
2023-04-15T04:51:33.985Z,10.25
2023-04-15T04:54:02.447Z,8.02
2023-04-15T04:56:30.456Z,9.75
2023-04-15T04:58:57.266Z,7.85
2023-04-15T05:01:24.268Z,8.20
2023-04-15T05:03:51.276Z,9.13
2023-04-15T05:06:18.248Z,8.02
2023-04-15T05:08:47.052Z,10.50
2023-04-15T05:11:13.939Z,9.50
2023-04-15T05:13:40.884Z,8.52
2023-04-15T05:16:08.522Z,8.07
2023-04-15T05:18:35.634Z,11.07
2023-04-15T05:21:03.035Z,9.45
2023-04-15T05:23:29.955Z,10.45
2023-04-15T05:25:56.771Z,8.95
2023-04-15T05:28:23.571Z,8.45
2023-04-15T05:30:50.662Z,8.50
2023-04-15T05:33:17.716Z,9.68
2023-04-15T05:35:44.630Z,8.35
2023-04-15T05:38:11.644Z,8.50
2023-04-15T05:40:38.487Z,8.27
2023-04-15T05:43:05.498Z,9.63
2023-04-15T05:45:32.507Z,8.77
2023-04-15T05:47:59.433Z,8.73
2023-04-15T05:50:26.355Z,8.65
2023-04-15T05:52:53.222Z,8.43
2023-04-15T05:55:20.088Z,9.70
2023-04-15T05:57:46.962Z,9.38
2023-04-15T06:00:14.486Z,9.13
2023-04-15T06:02:41.783Z,9.82
2023-04-15T06:05:10.054Z,8.23
2023-04-15T06:07:37.790Z,8.52
2023-04-15T06:10:05.836Z,8.45
2023-04-15T06:12:32.924Z,7.75
2023-04-15T06:15:00.377Z,8.82
2023-04-15T06:17:27.557Z,8.10
2023-04-15T06:19:55.831Z,8.18
2023-04-15T06:22:23.476Z,8.25
2023-04-15T06:24:51.602Z,8.77
2023-04-15T06:27:18.997Z,8.82
2023-04-15T06:29:46.256Z,8.30
2023-04-15T06:32:13.136Z,8.05
2023-04-15T06:34:39.984Z,7.57
2023-04-15T06:37:07.101Z,8.50
2023-04-15T06:39:33.924Z,8.98
2023-04-15T06:42:01.561Z,9.32
2023-04-15T06:44:29.154Z,9.32
2023-04-15T06:46:56.664Z,8.38
2023-04-15T06:49:23.542Z,8.98
2023-04-15T06:51:51.373Z,8.02
2023-04-15T06:54:18.280Z,9.48
2023-04-15T06:56:45.140Z,7.82
2023-04-15T06:59:12.919Z,8.23
2023-04-15T07:01:41.290Z,8.18
2023-04-15T07:04:08.297Z,7.88
2023-04-15T07:06:35.749Z,7.25
2023-04-15T07:09:03.676Z,7.68
2023-04-15T07:11:31.267Z,6.97
2023-04-15T07:13:58.627Z,7.28
2023-04-15T07:16:27.194Z,7.00
2023-04-15T07:18:55.978Z,7.15
2023-04-15T07:21:22.928Z,6.60
2023-04-15T07:23:49.828Z,6.75
2023-04-15T07:26:16.654Z,6.93
2023-04-15T07:28:43.545Z,6.57
2023-04-15T07:31:10.573Z,6.35
2023-04-15T07:33:37.570Z,6.53
2023-04-15T07:36:04.514Z,6.43
2023-04-15T07:38:31.310Z,6.00
2023-04-15T07:40:58.319Z,6.30
2023-04-15T07:43:25.341Z,6.82
2023-04-15T07:45:52.216Z,6.68
2023-04-15T07:48:19.150Z,6.78
2023-04-15T07:50:46.017Z,6.00
2023-04-15T07:53:13.540Z,6.35
2023-04-15T07:55:40.566Z,6.35
2023-04-15T07:58:07.375Z,5.25
2023-04-15T08:00:34.216Z,5.43
2023-04-15T08:03:01.335Z,5.40
2023-04-15T08:05:28.712Z,4.97
2023-04-15T08:07:56.186Z,5.53
2023-04-15T08:10:23.487Z,5.10
2023-04-15T08:12:50.838Z,5.72
2023-04-15T08:15:17.717Z,5.85
2023-04-15T08:17:44.618Z,4.95
2023-04-15T08:20:11.850Z,4.82
2023-04-15T08:22:39.056Z,5.35
2023-04-15T08:25:06.265Z,4.90
2023-04-15T08:27:33.087Z,5.55
2023-04-15T08:30:02.143Z,4.50
2023-04-15T08:32:30.417Z,4.05
2023-04-15T08:34:57.240Z,4.80
2023-04-15T08:37:24.149Z,4.53
2023-04-15T08:39:51.006Z,5.00
2023-04-15T08:42:23.333Z,4.55
2023-04-15T08:44:51.181Z,5.57
2023-04-15T08:47:22.624Z,4.95
2023-04-15T08:49:53.933Z,3.95
2023-04-15T08:52:21.472Z,4.90
2023-04-15T08:54:49.076Z,4.07
2023-04-15T08:57:16.310Z,3.63
2023-04-15T08:59:43.925Z,4.35
2023-04-15T09:02:12.056Z,3.80
2023-04-15T09:04:39.076Z,4.15
2023-04-15T09:07:06.134Z,4.35
2023-04-15T09:09:32.983Z,4.55
2023-04-15T09:12:01.891Z,4.50
2023-04-15T09:14:32.152Z,4.00
2023-04-15T09:17:01.014Z,3.60
2023-04-15T09:19:28.742Z,4.32
2023-04-15T09:21:59.128Z,4.20
2023-04-15T09:24:34.260Z,3.65
2023-04-15T09:27:01.120Z,3.85
2023-04-15T09:29:28.218Z,3.97
2023-04-15T09:31:55.045Z,4.72
2023-04-15T09:34:22.540Z,4.00
2023-04-15T09:36:54.955Z,4.47
2023-04-15T09:39:21.871Z,3.72
2023-04-15T09:42:08.290Z,3.67
2023-04-15T09:44:35.528Z,3.95
2023-04-15T09:47:02.465Z,3.50
2023-04-15T09:49:29.476Z,3.67
2023-04-15T09:52:06.064Z,3.40
2023-04-15T09:54:35.092Z,4.38
2023-04-15T09:57:12.303Z,3.23
2023-04-15T09:59:39.546Z,3.53
2023-04-15T10:02:09.591Z,3.78
2023-04-15T10:04:40.898Z,3.63
2023-04-15T10:07:12.683Z,3.20
2023-04-15T10:09:40.302Z,3.10
2023-04-15T10:12:07.414Z,3.30
2023-04-15T10:14:38.423Z,3.70
2023-04-15T10:17:06.082Z,3.55
2023-04-15T10:19:37.831Z,3.45
2023-04-15T10:22:05.177Z,3.33
2023-04-15T10:24:32.391Z,3.70
2023-04-15T10:27:00.264Z,3.58
2023-04-15T10:29:30.166Z,3.50
2023-04-15T10:31:58.649Z,3.50
2023-04-15T10:34:26.923Z,3.40
2023-04-15T10:36:58.452Z,11.95
2023-04-15T10:39:34.554Z,6.82
2023-04-15T10:42:15.881Z,4.22
2023-04-15T10:44:45.127Z,4.53
2023-04-15T10:47:14.273Z,3.22
2023-04-15T10:49:52.745Z,3.03
2023-04-15T10:52:24.857Z,2.88
2023-04-15T10:55:03.658Z,2.95
2023-04-15T10:57:36.270Z,2.70
2023-04-15T11:00:11.281Z,3.13
2023-04-15T11:02:57.601Z,3.10
2023-04-15T11:05:52.058Z,2.63
2023-04-15T11:08:38.976Z,2.60
2023-04-15T11:11:05.920Z,2.70
2023-04-15T11:13:34.236Z,2.53
2023-04-15T11:16:02.601Z,2.80
2023-04-15T11:18:31.358Z,2.95
2023-04-15T11:21:04.823Z,3.17
2023-04-15T11:23:34.742Z,3.63
2023-04-15T11:26:05.520Z,3.78
2023-04-15T11:28:33.343Z,3.33
2023-04-15T11:31:13.468Z,3.65
2023-04-15T11:34:01.512Z,3.40
2023-04-15T11:36:31.874Z,3.33
2023-04-15T11:39:00.257Z,3.60
2023-04-15T11:41:27.518Z,2.85
2023-04-15T11:43:54.405Z,2.60
2023-04-15T11:46:22.821Z,2.22
2023-04-15T11:48:50.269Z,2.80
2023-04-15T11:51:17.154Z,2.70
2023-04-15T11:53:50.572Z,4.38
2023-04-15T11:56:26.254Z,3.72
2023-04-15T11:58:59.319Z,2.95
2023-04-15T12:01:33.261Z,2.53
2023-04-15T12:04:01.566Z,2.42
2023-04-15T12:06:35.110Z,2.83
2023-04-15T12:09:07.062Z,2.90
2023-04-15T12:11:38.577Z,2.40
2023-04-15T12:14:31.497Z,2.70
2023-04-15T12:17:03.555Z,5.78
2023-04-15T12:19:35.398Z,4.32
2023-04-15T12:22:08.757Z,3.55
2023-04-15T12:24:36.982Z,2.83
2023-04-15T12:27:11.816Z,3.13
2023-04-15T12:29:40.415Z,2.90
2023-04-15T12:32:15.466Z,2.53
2023-04-15T12:34:42.346Z,2.97
2023-04-15T12:37:11.340Z,2.40
2023-04-15T12:39:40.629Z,2.65
2023-04-15T12:42:08.893Z,2.92
2023-04-15T12:44:36.690Z,2.65
2023-04-15T12:47:04.330Z,2.58
2023-04-15T12:49:32.823Z,3.20
2023-04-15T12:52:02.237Z,3.10
2023-04-15T12:54:33.107Z,2.65
2023-04-15T12:57:00.961Z,2.63
2023-04-15T12:59:28.462Z,2.80
2023-04-15T13:01:55.554Z,2.92
2023-04-15T13:04:22.563Z,2.72
2023-04-15T13:06:49.857Z,2.80
2023-04-15T13:09:16.859Z,2.30
2023-04-15T13:11:43.899Z,2.83
2023-04-15T13:14:14.046Z,2.20
2023-04-15T13:16:41.552Z,3.00
2023-04-15T13:19:08.679Z,2.47
2023-04-15T13:21:36.380Z,2.33
2023-04-15T13:24:04.529Z,2.25
2023-04-15T13:26:31.974Z,2.88
2023-04-15T13:28:59.457Z,2.40
2023-04-15T13:31:27.253Z,2.90
2023-04-15T13:33:54.217Z,2.60
2023-04-15T13:36:21.184Z,2.70
2023-04-15T13:38:50.934Z,1.90
2023-04-15T13:41:18.223Z,2.45
2023-04-15T13:43:45.057Z,2.47
2023-04-15T13:46:12.042Z,2.92
2023-04-15T13:48:38.957Z,2.38
2023-04-15T13:51:05.983Z,2.35
2023-04-15T13:53:37.744Z,2.15
2023-04-15T13:56:08.342Z,2.90
2023-04-15T13:58:36.157Z,2.50
2023-04-15T14:01:05.780Z,2.30
2023-04-15T14:03:34.924Z,2.30
2023-04-15T14:06:02.092Z,2.40
2023-04-15T14:08:30.415Z,2.40
2023-04-15T14:10:57.857Z,2.63
2023-04-15T14:13:25.246Z,2.30
2023-04-15T14:15:52.135Z,2.28
2023-04-15T14:18:18.988Z,2.42
2023-04-15T14:20:45.947Z,2.47
2023-04-15T14:23:13.039Z,2.72
2023-04-15T14:25:39.903Z,2.53
2023-04-15T14:28:06.831Z,2.30
2023-04-15T14:30:33.765Z,2.58
2023-04-15T14:33:00.949Z,2.22
2023-04-15T14:35:28.671Z,2.88
2023-04-15T14:37:55.894Z,2.97
2023-04-15T14:40:23.203Z,2.78
2023-04-15T14:42:50.239Z,3.17
2023-04-15T14:45:17.718Z,2.83
2023-04-15T14:47:45.043Z,2.75
2023-04-15T14:50:12.273Z,2.83
2023-04-15T14:52:39.239Z,2.63
2023-04-15T14:55:10.710Z,2.50
2023-04-15T14:57:38.497Z,2.95
2023-04-15T15:00:07.414Z,3.78
2023-04-15T15:05:05.107Z,3.25
2023-04-15T15:07:32.317Z,3.63
2023-04-15T15:09:59.121Z,3.03
2023-04-15T15:12:26.208Z,3.00
2023-04-15T15:14:53.077Z,3.22
2023-04-15T15:17:19.942Z,3.10
2023-04-15T15:19:46.729Z,3.67
2023-04-15T15:22:13.619Z,3.40
2023-04-15T15:24:40.499Z,3.25
2023-04-15T15:27:07.610Z,3.78
2023-04-15T15:29:34.483Z,4.22
2023-04-15T15:32:01.477Z,3.65
2023-04-15T15:34:28.315Z,3.55
2023-04-15T15:36:55.944Z,3.58
2023-04-15T15:39:25.909Z,3.78
2023-04-15T15:41:52.872Z,3.58
2023-04-15T15:44:19.750Z,4.10
2023-04-15T15:46:46.633Z,3.97
2023-04-15T15:49:13.521Z,4.03
2023-04-15T15:51:40.389Z,4.28
2023-04-15T15:54:07.353Z,3.97
2023-04-15T15:56:35.094Z,4.25
2023-04-15T15:59:02.047Z,3.83
2023-04-15T16:01:29.063Z,4.65
2023-04-15T16:03:56.109Z,3.47
2023-04-15T16:06:23.002Z,3.85
2023-04-15T16:08:49.893Z,4.43
2023-04-15T16:11:16.794Z,4.32
2023-04-15T16:13:43.735Z,3.65
2023-04-15T16:16:10.704Z,4.07
2023-04-15T16:18:37.577Z,5.57
2023-04-15T16:21:04.573Z,4.47
2023-04-15T16:23:31.528Z,4.43
2023-04-15T16:25:58.475Z,3.85
2023-04-15T16:28:27.139Z,4.18
2023-04-15T16:30:54.933Z,4.22
2023-04-15T16:33:21.881Z,4.47
2023-04-15T16:35:48.753Z,4.47
2023-04-15T16:38:15.639Z,4.25
2023-04-15T16:40:42.635Z,5.15
2023-04-15T16:43:11.361Z,4.90
2023-04-15T16:45:38.532Z,4.10
2023-04-15T16:48:05.883Z,4.38
2023-04-15T16:50:32.879Z,4.60
2023-04-15T16:52:59.699Z,3.80
2023-04-15T16:55:26.879Z,4.75
2023-04-15T16:58:01.506Z,4.38
2023-04-15T17:00:31.430Z,4.55
2023-04-15T17:02:59.060Z,5.35
2023-04-15T17:05:27.736Z,4.78
2023-04-15T17:07:55.176Z,5.57
2023-04-15T17:10:22.443Z,4.43
2023-04-15T17:12:52.046Z,4.88
2023-04-15T17:15:20.104Z,4.63
2023-04-15T17:17:47.050Z,4.90
2023-04-15T17:20:14.235Z,4.75
2023-04-15T17:22:41.138Z,5.07
2023-04-15T17:25:08.425Z,5.20
2023-04-15T17:27:35.607Z,5.38
2023-04-15T17:30:02.474Z,5.40
2023-04-15T17:32:31.972Z,5.40
2023-04-15T17:34:59.147Z,6.28
2023-04-15T17:37:26.774Z,5.38
2023-04-15T17:39:53.560Z,6.72
2023-04-15T17:42:21.615Z,6.35
2023-04-15T17:44:48.445Z,6.55
2023-04-15T17:47:15.553Z,6.85
2023-04-15T17:49:43.773Z,6.60
2023-04-15T17:52:10.658Z,5.82
2023-04-15T17:54:37.502Z,6.88
2023-04-15T17:57:04.504Z,6.25
2023-04-15T17:59:31.380Z,8.60
2023-04-15T18:01:58.918Z,7.15
2023-04-15T18:04:26.828Z,7.05
2023-04-15T18:06:54.191Z,5.50
2023-04-15T18:09:21.209Z,6.15
2023-04-15T18:11:48.867Z,6.55
2023-04-15T18:14:30.625Z,6.78
2023-04-15T18:17:01.423Z,7.15
2023-04-15T18:19:28.429Z,6.47
2023-04-15T18:21:55.312Z,6.80
2023-04-15T18:24:22.679Z,6.45
2023-04-15T18:26:49.673Z,7.22
2023-04-15T18:29:16.970Z,6.95
2023-04-15T18:31:44.136Z,7.65
2023-04-15T18:34:11.313Z,6.25
2023-04-15T18:36:38.190Z,6.18
2023-04-15T18:39:05.715Z,5.07
2023-04-15T18:41:32.785Z,7.20
2023-04-15T18:43:59.745Z,7.63
2023-04-15T18:46:27.671Z,6.50
2023-04-15T18:48:54.512Z,6.68
2023-04-15T18:51:21.378Z,6.80
2023-04-15T18:53:48.345Z,7.15
2023-04-15T18:56:15.494Z,6.93
2023-04-15T18:59:25.277Z,6.53
2023-04-15T19:01:31.632Z,7.18
2023-04-15T19:03:59.623Z,6.68
2023-04-15T19:06:27.284Z,8.55
2023-04-15T19:08:54.623Z,7.25
2023-04-15T19:11:21.781Z,7.15
2023-04-15T19:13:48.769Z,7.05
2023-04-15T19:16:15.744Z,8.13
2023-04-15T19:18:43.221Z,7.95
2023-04-15T19:21:14.440Z,7.82
2023-04-15T19:23:45.564Z,8.10
2023-04-15T19:26:12.569Z,7.38
2023-04-15T19:28:39.489Z,8.40
2023-04-15T19:31:06.793Z,8.07
2023-04-15T19:33:34.280Z,8.60
2023-04-15T19:36:04.069Z,8.48
2023-04-15T19:38:31.793Z,9.32
2023-04-15T19:40:59.281Z,7.72
2023-04-15T19:43:26.311Z,9.73
2023-04-15T19:45:54.784Z,9.32
2023-04-15T19:48:25.624Z,7.77
2023-04-15T19:50:52.501Z,8.63
2023-04-15T19:53:19.356Z,8.52
2023-04-15T19:55:47.194Z,9.15
2023-04-15T19:58:14.261Z,9.55
2023-04-15T20:00:41.153Z,9.20
2023-04-15T20:03:08.174Z,8.77
2023-04-15T20:05:35.578Z,9.70
2023-04-15T20:08:02.891Z,9.38
2023-04-15T20:10:31.815Z,8.50
2023-04-15T20:12:58.971Z,8.32
2023-04-15T20:15:26.082Z,11.27
2023-04-15T20:17:53.097Z,9.20
2023-04-15T20:20:20.220Z,9.73
2023-04-15T20:22:47.253Z,10.52
2023-04-15T20:25:14.306Z,10.18
2023-04-15T20:27:41.225Z,9.50
2023-04-15T20:30:08.650Z,10.60
2023-04-15T20:32:36.074Z,11.10
2023-04-15T20:35:04.499Z,9.82
2023-04-15T20:37:33.461Z,11.48
2023-04-15T20:40:01.660Z,9.95
2023-04-15T20:42:32.217Z,10.75
2023-04-15T20:44:59.182Z,13.20
2023-04-15T20:47:26.390Z,11.10
2023-04-15T20:49:53.971Z,12.10
2023-04-15T20:52:20.826Z,10.63
2023-04-15T20:54:47.695Z,13.63
2023-04-15T20:57:14.555Z,12.18
2023-04-15T20:59:41.425Z,11.88
2023-04-15T21:02:08.364Z,12.05
2023-04-15T21:04:35.887Z,11.93
2023-04-15T21:07:02.746Z,12.73
2023-04-15T21:09:29.718Z,12.77
2023-04-15T21:12:01.726Z,14.82
2023-04-15T21:14:29.366Z,11.60
2023-04-15T21:16:58.234Z,15.13
2023-04-15T21:19:25.163Z,12.32
2023-04-15T21:21:52.490Z,14.70
2023-04-15T21:24:19.347Z,12.95
2023-04-15T21:26:46.239Z,16.27
2023-04-15T21:29:13.350Z,14.30
2023-04-15T21:31:40.827Z,14.30
2023-04-15T21:34:07.755Z,13.70
2023-04-15T21:36:35.028Z,13.90
2023-04-15T21:39:01.899Z,15.55
2023-04-15T21:41:28.862Z,14.68
2023-04-15T21:43:55.836Z,15.43
2023-04-15T21:46:25.687Z,15.32
2023-04-15T21:48:59.978Z,14.65
2023-04-15T21:51:27.660Z,14.10
2023-04-15T21:53:54.562Z,16.38
2023-04-15T21:56:23.165Z,16.88
2023-04-15T21:58:50.079Z,17.20
2023-04-15T22:01:18.116Z,18.98
2023-04-15T22:03:45.170Z,17.80
2023-04-15T22:06:13.689Z,16.42
2023-04-15T22:08:54.935Z,20.25
2023-04-15T22:11:27.250Z,16.15
2023-04-15T22:13:55.174Z,17.90
2023-04-15T22:16:22.143Z,16.00
2023-04-15T22:18:49.126Z,17.25
2023-04-15T22:21:16.342Z,18.85
2023-04-15T22:23:47.214Z,18.23
2023-04-15T22:26:14.065Z,17.33
2023-04-15T22:28:40.961Z,16.80
2023-04-15T22:31:07.958Z,18.27
2023-04-15T22:33:35.204Z,18.63
2023-04-15T22:36:02.030Z,18.13
2023-04-15T22:38:28.978Z,24.05
2023-04-15T22:40:55.916Z,19.15
2023-04-15T22:43:22.895Z,19.67
2023-04-15T22:45:50.790Z,19.77
2023-04-15T22:48:18.800Z,19.90
2023-04-15T22:50:45.907Z,19.05
2023-04-15T22:53:13.197Z,22.45
2023-04-15T22:55:40.028Z,19.40
2023-04-15T22:58:06.914Z,21.20
2023-04-15T23:00:33.780Z,18.77
2023-04-15T23:03:00.901Z,22.88
2023-04-15T23:05:27.957Z,22.98
2023-04-15T23:07:54.834Z,20.42
2023-04-15T23:10:21.807Z,20.50
2023-04-15T23:12:48.777Z,20.70
2023-04-15T23:15:15.855Z,20.25
2023-04-15T23:17:43.337Z,22.33
2023-04-15T23:20:11.322Z,24.02
2023-04-15T23:22:38.783Z,23.90
2023-04-15T23:25:06.380Z,22.30
2023-04-15T23:27:33.268Z,23.85
2023-04-15T23:30:00.251Z,22.05
2023-04-15T23:32:27.411Z,24.10
2023-04-15T23:34:54.366Z,23.95
2023-04-15T23:37:21.332Z,24.92
2023-04-15T23:39:48.221Z,23.27
2023-04-15T23:42:15.122Z,23.65
2023-04-15T23:44:42.012Z,25.00
2023-04-15T23:47:08.935Z,22.77
2023-04-15T23:49:36.957Z,27.73
2023-04-15T23:52:04.199Z,24.73
2023-04-15T23:54:31.028Z,24.40
2023-04-15T23:56:57.866Z,24.42
2023-04-15T23:59:24.688Z,24.65
